createdAt,value
2022-07-25T00:01:53.457Z,0.00
2022-07-25T00:06:50.583Z,0.00
2022-07-25T00:11:49.841Z,0.00
2022-07-25T00:16:50.132Z,0.00
2022-07-25T00:21:48.443Z,0.00
2022-07-25T00:26:47.765Z,0.00
2022-07-25T00:31:47.131Z,0.00
2022-07-25T00:36:47.276Z,0.00
2022-07-25T00:41:45.596Z,0.00
2022-07-25T00:46:45.803Z,0.00
2022-07-25T00:51:43.963Z,0.00
2022-07-25T00:56:43.087Z,0.00
2022-07-25T01:01:43.446Z,0.00
2022-07-25T01:06:41.579Z,0.00
2022-07-25T01:11:40.905Z,0.00
2022-07-25T01:16:40.309Z,0.00
2022-07-25T01:21:39.440Z,0.00
2022-07-25T01:26:38.742Z,0.00
2022-07-25T01:31:38.125Z,0.00
2022-07-25T01:36:39.266Z,0.00
2022-07-25T01:41:38.574Z,0.00
2022-07-25T01:46:36.946Z,0.00
2022-07-25T01:51:36.121Z,0.00
2022-07-25T01:56:35.425Z,0.00
2022-07-25T02:01:34.777Z,0.00
2022-07-25T02:06:32.892Z,0.00
2022-07-25T02:11:32.231Z,0.00
2022-07-25T02:16:31.422Z,0.00
2022-07-25T02:21:30.581Z,0.00
2022-07-25T02:26:29.760Z,0.00
2022-07-25T02:31:28.936Z,0.00
2022-07-25T02:36:29.100Z,0.00
2022-07-25T02:41:28.239Z,0.00
2022-07-25T02:46:27.584Z,0.00
2022-07-25T02:51:25.904Z,0.00
2022-07-25T02:56:25.234Z,0.00
2022-07-25T03:01:24.705Z,0.00
2022-07-25T03:06:23.849Z,0.00
2022-07-25T03:11:23.213Z,0.00
2022-07-25T03:16:22.368Z,0.00
2022-07-25T03:21:23.490Z,0.00
2022-07-25T03:26:20.808Z,0.00
2022-07-25T03:31:20.257Z,0.00
2022-07-25T03:36:20.395Z,0.00
2022-07-25T03:41:18.742Z,4.00
2022-07-25T03:46:18.957Z,4.00
2022-07-25T03:51:16.119Z,4.00
2022-07-25T03:56:16.261Z,4.00
2022-07-25T04:01:15.665Z,8.00
2022-07-25T04:06:14.816Z,12.00
2022-07-25T04:11:13.932Z,16.00
2022-07-25T04:16:14.817Z,20.00
2022-07-25T04:21:14.504Z,24.00
2022-07-25T04:26:13.812Z,24.00
2022-07-25T04:31:11.172Z,28.00
2022-07-25T04:36:11.322Z,32.00
2022-07-25T04:41:10.469Z,36.00
2022-07-25T04:46:08.683Z,40.00
2022-07-25T04:51:08.831Z,44.00
2022-07-25T04:56:06.945Z,44.00
2022-07-25T05:01:05.315Z,48.00
2022-07-25T05:06:05.450Z,52.00
2022-07-25T05:11:05.756Z,52.00
2022-07-25T05:16:04.112Z,52.00
2022-07-25T05:21:03.277Z,56.00
2022-07-25T05:26:04.605Z,56.00
2022-07-25T05:31:02.004Z,60.00
2022-07-25T05:36:02.219Z,64.00
2022-07-25T05:41:00.312Z,68.00
2022-07-25T05:46:00.633Z,68.00
2022-07-25T05:50:57.921Z,68.00
2022-07-25T05:55:58.238Z,72.00
2022-07-25T06:00:57.517Z,72.00
2022-07-25T06:05:56.865Z,76.00
2022-07-25T06:10:57.148Z,76.00
2022-07-25T06:15:56.470Z,76.00
2022-07-25T06:20:54.610Z,76.00
2022-07-25T06:25:55.927Z,80.00
2022-07-25T06:30:55.257Z,84.00
2022-07-25T06:35:52.558Z,84.00
2022-07-25T06:40:52.880Z,84.00
2022-07-25T06:45:52.164Z,84.00
2022-07-25T06:50:51.446Z,84.00
2022-07-25T06:55:50.753Z,88.00
2022-07-25T07:00:49.093Z,84.00
2022-07-25T07:05:49.391Z,88.00
2022-07-25T07:10:47.663Z,8.00
2022-07-25T07:15:47.071Z,8.00
2022-07-25T07:20:49.229Z,8.00
2022-07-25T07:25:46.538Z,4.00
2022-07-25T07:31:14.628Z,4.00
2022-07-25T07:35:44.923Z,4.00
2022-07-25T07:40:43.219Z,4.00
2022-07-25T07:45:42.527Z,4.00
2022-07-25T07:50:42.854Z,4.00
2022-07-25T07:55:41.156Z,4.00
2022-07-25T08:00:40.467Z,8.00
2022-07-25T08:05:41.763Z,8.00
2022-07-25T08:10:39.045Z,8.00
2022-07-25T08:15:39.435Z,8.00
2022-07-25T08:20:39.113Z,8.00
2022-07-25T08:25:36.774Z,4.00
2022-07-25T08:30:37.070Z,4.00
2022-07-25T08:35:35.466Z,4.00
2022-07-25T08:40:34.630Z,4.00
2022-07-25T08:45:33.970Z,4.00
2022-07-25T08:50:34.307Z,4.00
2022-07-25T08:55:32.438Z,4.00
2022-07-25T09:00:33.697Z,4.00
2022-07-25T09:05:31.796Z,4.00
2022-07-25T09:10:31.160Z,4.00
2022-07-25T09:15:28.315Z,4.00
2022-07-25T09:20:29.494Z,4.00
2022-07-25T09:25:27.814Z,8.00
2022-07-25T09:30:27.175Z,8.00
2022-07-25T09:35:25.311Z,8.00
2022-07-25T09:40:25.470Z,4.00
2022-07-25T09:45:31.117Z,4.00
2022-07-25T09:50:23.807Z,4.00
2022-07-25T09:55:25.119Z,4.00
2022-07-25T10:00:24.424Z,4.00
2022-07-25T10:05:22.727Z,8.00
2022-07-25T10:10:21.015Z,8.00
2022-07-25T10:15:20.336Z,8.00
2022-07-25T10:20:19.660Z,4.00
2022-07-25T10:25:18.978Z,4.00
2022-07-25T10:30:18.282Z,4.00
2022-07-25T10:35:17.591Z,4.00
2022-07-25T10:40:16.897Z,4.00
2022-07-25T10:45:16.266Z,4.00
2022-07-25T10:50:40.320Z,4.00
2022-07-25T10:55:15.590Z,4.00
2022-07-25T11:00:13.924Z,4.00
2022-07-25T11:05:13.227Z,8.00
2022-07-25T11:10:13.534Z,8.00
2022-07-25T11:15:17.142Z,8.00
2022-07-25T11:20:12.007Z,8.00
2022-07-25T11:25:11.316Z,8.00
2022-07-25T11:30:09.617Z,4.00
2022-07-25T11:35:08.914Z,4.00
2022-07-25T11:40:11.272Z,4.00
2022-07-25T11:45:07.547Z,4.00
2022-07-25T11:50:06.964Z,4.00
2022-07-25T11:55:06.112Z,4.00
2022-07-25T12:00:07.246Z,4.00
2022-07-25T12:05:05.570Z,4.00
2022-07-25T12:10:04.760Z,4.00
2022-07-25T12:15:02.904Z,4.00
2022-07-25T12:20:02.214Z,4.00
2022-07-25T12:25:01.556Z,4.00
2022-07-25T12:30:01.710Z,4.00
2022-07-25T12:35:00.198Z,4.00
2022-07-25T12:40:01.287Z,4.00
2022-07-25T12:44:58.598Z,4.00
2022-07-25T12:49:58.957Z,4.00
2022-07-25T12:54:59.271Z,4.00
2022-07-25T12:59:57.568Z,4.00
2022-07-25T13:04:55.871Z,4.00
2022-07-25T13:09:57.181Z,4.00
2022-07-25T13:14:54.490Z,4.00
2022-07-25T13:19:54.803Z,4.00
2022-07-25T13:24:53.118Z,4.00
2022-07-25T13:29:52.455Z,4.00
2022-07-25T13:34:51.635Z,4.00
2022-07-25T13:39:51.954Z,4.00
2022-07-25T13:44:50.282Z,4.00
2022-07-25T13:49:50.585Z,4.00
2022-07-25T13:54:50.884Z,4.00
2022-07-25T13:59:48.183Z,4.00
2022-07-25T14:04:49.607Z,4.00
2022-07-25T14:09:47.744Z,4.00
2022-07-25T14:14:46.094Z,4.00
2022-07-25T14:19:46.203Z,4.00
2022-07-25T14:24:44.485Z,4.00
2022-07-25T14:29:43.819Z,4.00
2022-07-25T14:34:43.131Z,4.00
2022-07-25T14:39:42.436Z,8.00
2022-07-25T14:44:43.766Z,8.00
2022-07-25T14:49:41.018Z,8.00
2022-07-25T14:54:41.339Z,4.00
2022-07-25T14:59:39.677Z,4.00
2022-07-25T15:04:40.062Z,4.00
2022-07-25T15:09:38.242Z,8.00
2022-07-25T15:14:39.560Z,8.00
2022-07-25T15:19:36.868Z,8.00
2022-07-25T15:24:57.622Z,8.00
2022-07-25T15:29:36.381Z,8.00
2022-07-25T15:34:35.510Z,8.00
2022-07-25T15:39:33.856Z,8.00
2022-07-25T15:44:35.001Z,8.00
2022-07-25T15:49:33.329Z,8.00
2022-07-25T15:54:32.677Z,8.00
2022-07-25T15:59:30.824Z,4.00
2022-07-25T16:04:30.160Z,4.00
2022-07-25T16:09:29.311Z,4.00
2022-07-25T16:14:30.625Z,4.00
2022-07-25T16:19:27.948Z,4.00
2022-07-25T16:24:27.267Z,4.00
2022-07-25T16:29:26.415Z,4.00
2022-07-25T16:34:29.049Z,4.00
2022-07-25T16:39:24.988Z,4.00
2022-07-25T16:44:24.310Z,0.00
2022-07-25T16:49:24.557Z,0.00
2022-07-25T16:54:23.775Z,0.00
2022-07-25T16:59:23.082Z,0.00
2022-07-25T17:04:21.455Z,0.00
2022-07-25T17:09:20.632Z,0.00
2022-07-25T17:14:19.756Z,0.00
2022-07-25T17:19:18.913Z,32.00
2022-07-25T17:24:18.245Z,40.00
2022-07-25T17:29:18.394Z,96.00
2022-07-25T17:34:16.730Z,328.00
2022-07-25T17:39:15.875Z,196.00
2022-07-25T17:44:17.249Z,152.00
2022-07-25T17:49:14.374Z,128.00
2022-07-25T17:54:13.435Z,172.00
2022-07-25T17:59:12.479Z,152.00
2022-07-25T18:04:12.853Z,120.00
2022-07-25T18:09:10.962Z,96.00
2022-07-25T18:14:10.302Z,96.00
2022-07-25T18:19:09.269Z,68.00
2022-07-25T18:24:08.913Z,36.00
2022-07-25T18:29:07.790Z,16.00
2022-07-25T18:34:07.306Z,8.00
2022-07-25T18:39:06.465Z,4.00
2022-07-25T18:44:05.930Z,4.00
2022-07-25T18:49:05.867Z,0.00
2022-07-25T18:54:06.403Z,0.00
2022-07-25T18:59:04.414Z,4.00
2022-07-25T19:04:02.643Z,4.00
2022-07-25T19:09:02.779Z,4.00
2022-07-25T19:14:01.140Z,0.00
2022-07-25T19:19:00.247Z,4.00
2022-07-25T19:23:59.576Z,4.00
2022-07-25T19:29:00.980Z,4.00
2022-07-25T19:33:58.123Z,4.00
2022-07-25T19:38:59.483Z,4.00
2022-07-25T19:43:56.601Z,4.00
2022-07-25T19:48:56.970Z,4.00
2022-07-25T19:53:56.113Z,4.00
2022-07-25T19:58:55.445Z,4.00
2022-07-25T20:03:53.772Z,0.00
2022-07-25T20:08:52.894Z,4.00
2022-07-25T20:13:52.213Z,4.00
2022-07-25T20:18:53.367Z,4.00
2022-07-25T20:23:50.506Z,4.00
2022-07-25T20:28:49.624Z,0.00
2022-07-25T20:33:48.932Z,0.00
2022-07-25T20:38:50.271Z,0.00
2022-07-25T20:43:47.416Z,0.00
2022-07-25T20:48:47.558Z,0.00
2022-07-25T20:53:53.117Z,0.00
2022-07-25T20:58:44.921Z,0.00
2022-07-25T21:03:46.047Z,0.00
2022-07-25T21:08:43.394Z,0.00
2022-07-25T21:13:43.561Z,0.00
2022-07-25T21:18:42.677Z,0.00
2022-07-25T21:23:41.023Z,0.00
2022-07-25T21:28:39.174Z,4.00
2022-07-25T21:33:40.530Z,4.00
2022-07-25T21:38:39.640Z,0.00
2022-07-25T21:43:38.967Z,4.00
2022-07-25T21:48:36.273Z,0.00
2022-07-25T21:53:37.503Z,0.00
2022-07-25T21:58:35.608Z,0.00
2022-07-25T22:03:35.972Z,0.00
2022-07-25T22:08:35.246Z,0.00
2022-07-25T22:13:33.531Z,4.00
2022-07-25T22:18:32.836Z,0.00
2022-07-25T22:23:33.136Z,0.00
2022-07-25T22:28:32.451Z,0.00
2022-07-25T22:33:30.753Z,0.00
2022-07-25T22:38:30.076Z,0.00
2022-07-25T22:43:58.648Z,0.00
2022-07-25T22:48:28.626Z,0.00
2022-07-25T22:53:26.739Z,0.00
2022-07-25T22:58:27.114Z,0.00
2022-07-25T23:03:26.322Z,0.00
2022-07-25T23:08:26.439Z,0.00
2022-07-25T23:13:24.764Z,0.00
2022-07-25T23:18:23.912Z,0.00
2022-07-25T23:23:24.230Z,0.00
2022-07-25T23:28:22.537Z,0.00
2022-07-25T23:33:25.293Z,0.00
2022-07-25T23:38:21.189Z,0.00
2022-07-25T23:43:27.759Z,0.00
2022-07-25T23:48:19.688Z,0.00
2022-07-25T23:53:20.992Z,0.00
2022-07-25T23:58:17.301Z,0.00
